sensor_id;sensor_type;location;lat;lon;timestamp;temperature;humidity
51863;DHT22;37900;52.996;6.278;2024-02-16T00:00:41;17.80;92.30
51863;DHT22;37900;52.996;6.278;2024-02-16T00:03:09;17.80;92.20
51863;DHT22;37900;52.996;6.278;2024-02-16T00:05:35;17.80;92.50
51863;DHT22;37900;52.996;6.278;2024-02-16T00:08:02;17.80;92.50
51863;DHT22;37900;52.996;6.278;2024-02-16T00:10:28;17.80;92.20
51863;DHT22;37900;52.996;6.278;2024-02-16T00:12:54;17.80;92.20
51863;DHT22;37900;52.996;6.278;2024-02-16T00:15:19;17.80;92.20
51863;DHT22;37900;52.996;6.278;2024-02-16T00:17:45;17.80;92.10
51863;DHT22;37900;52.996;6.278;2024-02-16T00:20:11;17.80;92.10
51863;DHT22;37900;52.996;6.278;2024-02-16T00:22:38;17.80;92.10
51863;DHT22;37900;52.996;6.278;2024-02-16T00:25:03;17.80;92.10
51863;DHT22;37900;52.996;6.278;2024-02-16T00:27:29;17.80;92.10
51863;DHT22;37900;52.996;6.278;2024-02-16T00:29:55;17.80;92.00
51863;DHT22;37900;52.996;6.278;2024-02-16T00:32:20;17.80;92.00
51863;DHT22;37900;52.996;6.278;2024-02-16T00:34:49;17.80;92.00
51863;DHT22;37900;52.996;6.278;2024-02-16T00:37:17;17.70;91.90
51863;DHT22;37900;52.996;6.278;2024-02-16T00:39:43;17.80;91.90
51863;DHT22;37900;52.996;6.278;2024-02-16T00:42:08;17.70;91.90
51863;DHT22;37900;52.996;6.278;2024-02-16T00:44:34;17.70;91.90
51863;DHT22;37900;52.996;6.278;2024-02-16T00:47:00;17.70;91.90
51863;DHT22;37900;52.996;6.278;2024-02-16T00:49:26;17.70;91.90
51863;DHT22;37900;52.996;6.278;2024-02-16T00:51:51;17.70;91.80
51863;DHT22;37900;52.996;6.278;2024-02-16T00:54:17;17.70;91.80
51863;DHT22;37900;52.996;6.278;2024-02-16T00:56:42;17.70;91.80
51863;DHT22;37900;52.996;6.278;2024-02-16T00:59:08;17.70;91.80
51863;DHT22;37900;52.996;6.278;2024-02-16T01:01:35;17.70;91.90
51863;DHT22;37900;52.996;6.278;2024-02-16T01:04:01;17.70;91.80
51863;DHT22;37900;52.996;6.278;2024-02-16T01:06:27;17.70;91.80
51863;DHT22;37900;52.996;6.278;2024-02-16T01:08:53;17.70;91.80
51863;DHT22;37900;52.996;6.278;2024-02-16T01:11:18;17.70;91.70
51863;DHT22;37900;52.996;6.278;2024-02-16T01:13:47;17.70;91.70
51863;DHT22;37900;52.996;6.278;2024-02-16T01:16:13;17.70;91.70
51863;DHT22;37900;52.996;6.278;2024-02-16T01:18:39;17.70;91.70
51863;DHT22;37900;52.996;6.278;2024-02-16T01:21:05;17.70;91.60
51863;DHT22;37900;52.996;6.278;2024-02-16T01:23:30;17.70;91.60
51863;DHT22;37900;52.996;6.278;2024-02-16T01:25:56;17.70;91.60
51863;DHT22;37900;52.996;6.278;2024-02-16T01:28:22;17.70;91.60
51863;DHT22;37900;52.996;6.278;2024-02-16T01:30:48;17.70;91.60
51863;DHT22;37900;52.996;6.278;2024-02-16T01:33:14;17.60;91.60
51863;DHT22;37900;52.996;6.278;2024-02-16T01:35:40;17.30;91.50
51863;DHT22;37900;52.996;6.278;2024-02-16T01:38:05;17.60;91.50
51863;DHT22;37900;52.996;6.278;2024-02-16T01:40:31;17.60;91.50
51863;DHT22;37900;52.996;6.278;2024-02-16T01:42:57;17.60;91.50
51863;DHT22;37900;52.996;6.278;2024-02-16T01:45:22;17.60;91.50
51863;DHT22;37900;52.996;6.278;2024-02-16T01:47:49;17.60;91.50
51863;DHT22;37900;52.996;6.278;2024-02-16T01:50:16;17.60;91.50
51863;DHT22;37900;52.996;6.278;2024-02-16T01:52:43;17.60;91.50
51863;DHT22;37900;52.996;6.278;2024-02-16T01:55:09;17.60;91.40
51863;DHT22;37900;52.996;6.278;2024-02-16T01:57:38;17.60;91.40
51863;DHT22;37900;52.996;6.278;2024-02-16T02:00:04;17.60;91.40
51863;DHT22;37900;52.996;6.278;2024-02-16T02:02:34;17.60;91.40
51863;DHT22;37900;52.996;6.278;2024-02-16T02:04:59;17.60;91.40
51863;DHT22;37900;52.996;6.278;2024-02-16T02:07:25;17.60;91.40
51863;DHT22;37900;52.996;6.278;2024-02-16T02:09:54;17.60;91.40
51863;DHT22;37900;52.996;6.278;2024-02-16T02:12:20;17.60;91.40
51863;DHT22;37900;52.996;6.278;2024-02-16T02:14:46;17.60;91.30
51863;DHT22;37900;52.996;6.278;2024-02-16T02:17:12;17.60;91.30
51863;DHT22;37900;52.996;6.278;2024-02-16T02:19:38;17.60;91.30
51863;DHT22;37900;52.996;6.278;2024-02-16T02:22:04;17.50;91.30
51863;DHT22;37900;52.996;6.278;2024-02-16T02:24:29;17.60;91.30
51863;DHT22;37900;52.996;6.278;2024-02-16T02:26:55;17.60;91.30
51863;DHT22;37900;52.996;6.278;2024-02-16T02:29:22;17.60;91.20
51863;DHT22;37900;52.996;6.278;2024-02-16T02:31:48;17.50;91.20
51863;DHT22;37900;52.996;6.278;2024-02-16T02:34:14;17.50;91.20
51863;DHT22;37900;52.996;6.278;2024-02-16T02:36:40;17.50;91.20
51863;DHT22;37900;52.996;6.278;2024-02-16T02:39:06;17.50;91.20
51863;DHT22;37900;52.996;6.278;2024-02-16T02:41:32;17.50;91.20
51863;DHT22;37900;52.996;6.278;2024-02-16T02:43:58;17.50;91.20
51863;DHT22;37900;52.996;6.278;2024-02-16T02:46:23;17.50;91.10
51863;DHT22;37900;52.996;6.278;2024-02-16T02:48:53;17.50;91.10
51863;DHT22;37900;52.996;6.278;2024-02-16T02:51:18;17.50;91.10
51863;DHT22;37900;52.996;6.278;2024-02-16T02:53:44;17.50;91.10
51863;DHT22;37900;52.996;6.278;2024-02-16T02:56:10;17.50;91.10
51863;DHT22;37900;52.996;6.278;2024-02-16T02:58:35;17.50;91.10
51863;DHT22;37900;52.996;6.278;2024-02-16T03:01:01;17.50;91.10
51863;DHT22;37900;52.996;6.278;2024-02-16T03:03:26;17.50;91.10
51863;DHT22;37900;52.996;6.278;2024-02-16T03:05:52;17.50;91.10
51863;DHT22;37900;52.996;6.278;2024-02-16T03:08:18;17.50;91.10
51863;DHT22;37900;52.996;6.278;2024-02-16T03:10:43;17.50;91.00
51863;DHT22;37900;52.996;6.278;2024-02-16T03:13:09;17.50;91.00
51863;DHT22;37900;52.996;6.278;2024-02-16T03:15:37;17.50;91.00
51863;DHT22;37900;52.996;6.278;2024-02-16T03:18:07;17.50;91.00
51863;DHT22;37900;52.996;6.278;2024-02-16T03:20:34;17.50;91.00
51863;DHT22;37900;52.996;6.278;2024-02-16T03:23:00;17.50;91.00
51863;DHT22;37900;52.996;6.278;2024-02-16T03:25:25;17.50;91.00
51863;DHT22;37900;52.996;6.278;2024-02-16T03:27:51;17.40;91.00
51863;DHT22;37900;52.996;6.278;2024-02-16T03:30:18;17.50;91.00
51863;DHT22;37900;52.996;6.278;2024-02-16T03:32:50;17.50;90.90
51863;DHT22;37900;52.996;6.278;2024-02-16T03:35:16;17.50;90.90
51863;DHT22;37900;52.996;6.278;2024-02-16T03:37:42;17.40;90.90
51863;DHT22;37900;52.996;6.278;2024-02-16T03:40:07;17.50;90.90
51863;DHT22;37900;52.996;6.278;2024-02-16T03:42:35;17.40;90.90
51863;DHT22;37900;52.996;6.278;2024-02-16T03:45:01;17.40;90.90
51863;DHT22;37900;52.996;6.278;2024-02-16T03:47:26;17.40;90.90
51863;DHT22;37900;52.996;6.278;2024-02-16T03:49:52;17.40;90.90
51863;DHT22;37900;52.996;6.278;2024-02-16T03:52:17;17.40;90.80
51863;DHT22;37900;52.996;6.278;2024-02-16T03:54:43;17.40;90.80
51863;DHT22;37900;52.996;6.278;2024-02-16T03:57:13;17.40;90.80
51863;DHT22;37900;52.996;6.278;2024-02-16T03:59:38;17.40;91.10
51863;DHT22;37900;52.996;6.278;2024-02-16T04:02:04;17.40;90.80
51863;DHT22;37900;52.996;6.278;2024-02-16T04:04:30;17.40;90.80
51863;DHT22;37900;52.996;6.278;2024-02-16T04:06:56;17.40;90.80
51863;DHT22;37900;52.996;6.278;2024-02-16T04:09:21;17.40;90.80
51863;DHT22;37900;52.996;6.278;2024-02-16T04:11:47;17.40;90.80
51863;DHT22;37900;52.996;6.278;2024-02-16T04:14:12;17.40;90.70
51863;DHT22;37900;52.996;6.278;2024-02-16T04:16:38;17.40;90.70
51863;DHT22;37900;52.996;6.278;2024-02-16T04:19:03;17.40;90.70
51863;DHT22;37900;52.996;6.278;2024-02-16T04:21:29;17.40;90.70
51863;DHT22;37900;52.996;6.278;2024-02-16T04:23:55;17.30;90.70
51863;DHT22;37900;52.996;6.278;2024-02-16T04:26:20;17.30;90.70
51863;DHT22;37900;52.996;6.278;2024-02-16T04:28:46;17.40;90.70
51863;DHT22;37900;52.996;6.278;2024-02-16T04:31:11;17.30;90.70
51863;DHT22;37900;52.996;6.278;2024-02-16T04:33:37;17.40;90.70
51863;DHT22;37900;52.996;6.278;2024-02-16T04:36:05;17.30;90.70
51863;DHT22;37900;52.996;6.278;2024-02-16T04:38:31;17.40;90.70
51863;DHT22;37900;52.996;6.278;2024-02-16T04:40:56;17.40;90.70
51863;DHT22;37900;52.996;6.278;2024-02-16T04:43:22;17.40;90.70
51863;DHT22;37900;52.996;6.278;2024-02-16T04:45:47;17.40;90.60
51863;DHT22;37900;52.996;6.278;2024-02-16T04:48:13;17.40;90.60
51863;DHT22;37900;52.996;6.278;2024-02-16T04:50:39;17.40;90.60
51863;DHT22;37900;52.996;6.278;2024-02-16T04:53:04;17.30;90.60
51863;DHT22;37900;52.996;6.278;2024-02-16T04:55:30;17.30;90.60
51863;DHT22;37900;52.996;6.278;2024-02-16T04:57:56;17.30;90.60
51863;DHT22;37900;52.996;6.278;2024-02-16T05:00:22;17.30;90.60
51863;DHT22;37900;52.996;6.278;2024-02-16T05:02:47;17.30;90.60
51863;DHT22;37900;52.996;6.278;2024-02-16T05:05:13;17.30;90.60
51863;DHT22;37900;52.996;6.278;2024-02-16T05:07:42;17.30;90.50
51863;DHT22;37900;52.996;6.278;2024-02-16T05:10:08;17.30;90.50
51863;DHT22;37900;52.996;6.278;2024-02-16T05:12:33;17.30;90.50
51863;DHT22;37900;52.996;6.278;2024-02-16T05:14:59;17.30;90.50
51863;DHT22;37900;52.996;6.278;2024-02-16T05:17:25;17.30;90.50
51863;DHT22;37900;52.996;6.278;2024-02-16T05:19:51;17.30;90.50
51863;DHT22;37900;52.996;6.278;2024-02-16T05:22:17;17.30;90.50
51863;DHT22;37900;52.996;6.278;2024-02-16T05:24:44;17.30;90.50
51863;DHT22;37900;52.996;6.278;2024-02-16T05:27:10;17.30;90.50
51863;DHT22;37900;52.996;6.278;2024-02-16T05:29:36;17.30;90.50
51863;DHT22;37900;52.996;6.278;2024-02-16T05:32:01;17.30;90.50
51863;DHT22;37900;52.996;6.278;2024-02-16T05:34:27;17.20;90.40
51863;DHT22;37900;52.996;6.278;2024-02-16T05:36:57;17.30;90.40
51863;DHT22;37900;52.996;6.278;2024-02-16T05:39:23;17.30;90.40
51863;DHT22;37900;52.996;6.278;2024-02-16T05:41:52;17.30;90.40
51863;DHT22;37900;52.996;6.278;2024-02-16T05:44:19;17.30;90.40
51863;DHT22;37900;52.996;6.278;2024-02-16T05:46:45;17.30;90.40
51863;DHT22;37900;52.996;6.278;2024-02-16T05:49:11;17.30;90.40
51863;DHT22;37900;52.996;6.278;2024-02-16T05:51:37;17.30;90.40
51863;DHT22;37900;52.996;6.278;2024-02-16T05:54:06;17.30;90.40
51863;DHT22;37900;52.996;6.278;2024-02-16T05:56:36;17.20;90.60
51863;DHT22;37900;52.996;6.278;2024-02-16T05:59:04;17.20;90.30
51863;DHT22;37900;52.996;6.278;2024-02-16T06:01:30;17.20;90.30
51863;DHT22;37900;52.996;6.278;2024-02-16T06:03:56;17.20;90.30
51863;DHT22;37900;52.996;6.278;2024-02-16T06:06:22;17.20;90.30
51863;DHT22;37900;52.996;6.278;2024-02-16T06:08:47;17.20;90.30
51863;DHT22;37900;52.996;6.278;2024-02-16T06:11:13;17.20;90.30
51863;DHT22;37900;52.996;6.278;2024-02-16T06:13:38;17.20;90.30
51863;DHT22;37900;52.996;6.278;2024-02-16T06:16:05;17.20;90.30
51863;DHT22;37900;52.996;6.278;2024-02-16T06:18:31;17.20;90.30
51863;DHT22;37900;52.996;6.278;2024-02-16T06:20:57;16.90;90.20
51863;DHT22;37900;52.996;6.278;2024-02-16T06:23:23;17.20;90.30
51863;DHT22;37900;52.996;6.278;2024-02-16T06:25:49;17.20;90.30
51863;DHT22;37900;52.996;6.278;2024-02-16T06:28:14;17.20;90.30
51863;DHT22;37900;52.996;6.278;2024-02-16T06:30:40;17.20;90.30
51863;DHT22;37900;52.996;6.278;2024-02-16T06:33:06;17.20;90.20
51863;DHT22;37900;52.996;6.278;2024-02-16T06:35:31;17.20;90.30
51863;DHT22;37900;52.996;6.278;2024-02-16T06:37:57;17.20;90.20
51863;DHT22;37900;52.996;6.278;2024-02-16T06:40:22;17.20;90.20
51863;DHT22;37900;52.996;6.278;2024-02-16T06:42:48;17.20;90.20
51863;DHT22;37900;52.996;6.278;2024-02-16T06:45:14;17.20;90.20
51863;DHT22;37900;52.996;6.278;2024-02-16T06:47:39;17.20;90.20
51863;DHT22;37900;52.996;6.278;2024-02-16T06:50:05;17.20;90.20
51863;DHT22;37900;52.996;6.278;2024-02-16T06:52:31;17.20;90.20
51863;DHT22;37900;52.996;6.278;2024-02-16T06:54:56;17.20;90.20
51863;DHT22;37900;52.996;6.278;2024-02-16T06:57:22;17.20;90.20
51863;DHT22;37900;52.996;6.278;2024-02-16T06:59:48;17.20;90.20
51863;DHT22;37900;52.996;6.278;2024-02-16T07:02:13;17.20;90.10
51863;DHT22;37900;52.996;6.278;2024-02-16T07:04:40;17.20;90.10
51863;DHT22;37900;52.996;6.278;2024-02-16T07:07:06;17.10;90.10
51863;DHT22;37900;52.996;6.278;2024-02-16T07:09:32;17.20;90.20
51863;DHT22;37900;52.996;6.278;2024-02-16T07:11:57;17.20;90.10
51863;DHT22;37900;52.996;6.278;2024-02-16T07:14:24;17.20;90.10
51863;DHT22;37900;52.996;6.278;2024-02-16T07:16:49;17.10;90.10
51863;DHT22;37900;52.996;6.278;2024-02-16T07:19:15;17.10;90.10
51863;DHT22;37900;52.996;6.278;2024-02-16T07:21:41;17.10;90.10
51863;DHT22;37900;52.996;6.278;2024-02-16T07:24:06;17.10;90.40
51863;DHT22;37900;52.996;6.278;2024-02-16T07:26:32;17.20;90.10
51863;DHT22;37900;52.996;6.278;2024-02-16T07:28:58;17.10;90.10
51863;DHT22;37900;52.996;6.278;2024-02-16T07:31:24;17.10;90.10
51863;DHT22;37900;52.996;6.278;2024-02-16T07:33:49;17.10;90.10
51863;DHT22;37900;52.996;6.278;2024-02-16T07:36:15;17.10;90.10
51863;DHT22;37900;52.996;6.278;2024-02-16T07:38:43;17.10;90.10
51863;DHT22;37900;52.996;6.278;2024-02-16T07:41:09;17.10;90.00
51863;DHT22;37900;52.996;6.278;2024-02-16T07:43:34;17.10;90.00
51863;DHT22;37900;52.996;6.278;2024-02-16T07:46:00;17.10;90.00
51863;DHT22;37900;52.996;6.278;2024-02-16T07:48:26;17.10;90.00
51863;DHT22;37900;52.996;6.278;2024-02-16T07:50:51;17.10;90.00
51863;DHT22;37900;52.996;6.278;2024-02-16T07:53:17;17.10;90.00
51863;DHT22;37900;52.996;6.278;2024-02-16T07:55:43;17.10;90.00
51863;DHT22;37900;52.996;6.278;2024-02-16T07:58:08;17.10;90.00
51863;DHT22;37900;52.996;6.278;2024-02-16T08:00:34;17.10;90.00
51863;DHT22;37900;52.996;6.278;2024-02-16T08:03:00;17.10;90.00
51863;DHT22;37900;52.996;6.278;2024-02-16T08:05:26;17.10;90.00
51863;DHT22;37900;52.996;6.278;2024-02-16T08:07:52;17.10;90.00
51863;DHT22;37900;52.996;6.278;2024-02-16T08:10:21;17.10;90.00
51863;DHT22;37900;52.996;6.278;2024-02-16T08:12:47;17.00;90.00
51863;DHT22;37900;52.996;6.278;2024-02-16T08:15:13;17.10;90.00
51863;DHT22;37900;52.996;6.278;2024-02-16T08:17:39;17.10;90.10
51863;DHT22;37900;52.996;6.278;2024-02-16T08:20:05;17.10;90.10
51863;DHT22;37900;52.996;6.278;2024-02-16T08:22:31;17.10;90.20
51863;DHT22;37900;52.996;6.278;2024-02-16T08:24:58;17.10;90.30
51863;DHT22;37900;52.996;6.278;2024-02-16T08:27:24;17.10;90.40
51863;DHT22;37900;52.996;6.278;2024-02-16T08:29:50;17.10;90.50
51863;DHT22;37900;52.996;6.278;2024-02-16T08:32:17;17.10;90.50
51863;DHT22;37900;52.996;6.278;2024-02-16T08:34:43;17.20;90.50
51863;DHT22;37900;52.996;6.278;2024-02-16T08:37:09;17.20;90.50
51863;DHT22;37900;52.996;6.278;2024-02-16T08:39:37;17.20;90.60
51863;DHT22;37900;52.996;6.278;2024-02-16T08:42:03;17.20;90.60
51863;DHT22;37900;52.996;6.278;2024-02-16T08:44:29;17.20;90.60
51863;DHT22;37900;52.996;6.278;2024-02-16T08:46:54;17.20;90.60
51863;DHT22;37900;52.996;6.278;2024-02-16T08:49:20;17.20;90.60
51863;DHT22;37900;52.996;6.278;2024-02-16T08:51:46;17.30;90.60
51863;DHT22;37900;52.996;6.278;2024-02-16T08:54:12;17.20;90.70
51863;DHT22;37900;52.996;6.278;2024-02-16T08:56:38;17.30;90.70
51863;DHT22;37900;52.996;6.278;2024-02-16T08:59:05;17.30;90.70
51863;DHT22;37900;52.996;6.278;2024-02-16T09:01:34;17.30;90.70
51863;DHT22;37900;52.996;6.278;2024-02-16T09:04:00;17.30;90.70
51863;DHT22;37900;52.996;6.278;2024-02-16T09:06:26;17.30;90.70
51863;DHT22;37900;52.996;6.278;2024-02-16T09:08:51;17.30;90.70
51863;DHT22;37900;52.996;6.278;2024-02-16T09:11:17;17.30;90.70
51863;DHT22;37900;52.996;6.278;2024-02-16T09:13:43;17.30;90.80
51863;DHT22;37900;52.996;6.278;2024-02-16T09:16:09;17.30;90.80
51863;DHT22;37900;52.996;6.278;2024-02-16T09:18:34;17.30;90.80
51863;DHT22;37900;52.996;6.278;2024-02-16T09:21:02;17.40;90.80
51863;DHT22;37900;52.996;6.278;2024-02-16T09:23:28;17.40;90.80
51863;DHT22;37900;52.996;6.278;2024-02-16T09:25:54;17.40;90.90
51863;DHT22;37900;52.996;6.278;2024-02-16T09:28:20;17.40;90.90
51863;DHT22;37900;52.996;6.278;2024-02-16T09:30:49;17.40;90.90
51863;DHT22;37900;52.996;6.278;2024-02-16T09:33:14;17.30;90.90
51863;DHT22;37900;52.996;6.278;2024-02-16T09:35:40;17.40;90.90
51863;DHT22;37900;52.996;6.278;2024-02-16T09:38:06;17.40;91.00
51863;DHT22;37900;52.996;6.278;2024-02-16T09:40:31;17.40;91.00
51863;DHT22;37900;52.996;6.278;2024-02-16T09:42:57;17.40;91.00
51863;DHT22;37900;52.996;6.278;2024-02-16T09:45:23;17.40;91.00
51863;DHT22;37900;52.996;6.278;2024-02-16T09:47:49;17.50;91.10
51863;DHT22;37900;52.996;6.278;2024-02-16T09:50:15;17.40;91.10
51863;DHT22;37900;52.996;6.278;2024-02-16T09:52:41;17.50;91.10
51863;DHT22;37900;52.996;6.278;2024-02-16T09:55:09;17.50;91.10
51863;DHT22;37900;52.996;6.278;2024-02-16T09:57:35;17.50;91.10
51863;DHT22;37900;52.996;6.278;2024-02-16T10:00:02;17.50;91.10
51863;DHT22;37900;52.996;6.278;2024-02-16T10:02:39;17.50;91.10
51863;DHT22;37900;52.996;6.278;2024-02-16T10:05:13;17.50;91.20
51863;DHT22;37900;52.996;6.278;2024-02-16T10:07:39;17.70;91.20
51863;DHT22;37900;52.996;6.278;2024-02-16T10:10:05;17.50;91.20
51863;DHT22;37900;52.996;6.278;2024-02-16T10:12:31;17.50;91.20
51863;DHT22;37900;52.996;6.278;2024-02-16T10:14:57;17.50;91.20
51863;DHT22;37900;52.996;6.278;2024-02-16T10:17:24;17.50;91.50
51863;DHT22;37900;52.996;6.278;2024-02-16T10:19:57;17.50;91.20
51863;DHT22;37900;52.996;6.278;2024-02-16T10:22:22;17.50;91.20
51863;DHT22;37900;52.996;6.278;2024-02-16T10:24:48;17.50;91.30
51863;DHT22;37900;52.996;6.278;2024-02-16T10:27:15;17.50;91.30
51863;DHT22;37900;52.996;6.278;2024-02-16T10:29:44;17.50;91.30
51863;DHT22;37900;52.996;6.278;2024-02-16T10:32:12;17.50;91.30
51863;DHT22;37900;52.996;6.278;2024-02-16T10:34:38;17.50;91.30
51863;DHT22;37900;52.996;6.278;2024-02-16T10:37:04;17.50;91.70
51863;DHT22;37900;52.996;6.278;2024-02-16T10:39:31;17.60;91.60
51863;DHT22;37900;52.996;6.278;2024-02-16T10:41:57;17.60;91.60
51863;DHT22;37900;52.996;6.278;2024-02-16T10:44:23;17.60;91.60
51863;DHT22;37900;52.996;6.278;2024-02-16T10:46:50;17.60;91.70
51863;DHT22;37900;52.996;6.278;2024-02-16T10:49:17;17.60;91.80
51863;DHT22;37900;52.996;6.278;2024-02-16T10:51:47;17.60;91.80
51863;DHT22;37900;52.996;6.278;2024-02-16T10:54:15;17.60;91.90
51863;DHT22;37900;52.996;6.278;2024-02-16T10:56:42;17.60;91.90
51863;DHT22;37900;52.996;6.278;2024-02-16T10:59:08;17.60;92.00
51863;DHT22;37900;52.996;6.278;2024-02-16T11:04:03;17.70;92.10
51863;DHT22;37900;52.996;6.278;2024-02-16T11:06:29;17.70;92.10
51863;DHT22;37900;52.996;6.278;2024-02-16T11:09:00;17.70;92.20
51863;DHT22;37900;52.996;6.278;2024-02-16T11:11:26;17.70;92.30
51863;DHT22;37900;52.996;6.278;2024-02-16T11:13:54;17.70;92.30
51863;DHT22;37900;52.996;6.278;2024-02-16T11:16:19;17.70;92.20
51863;DHT22;37900;52.996;6.278;2024-02-16T11:18:47;17.70;92.20
51863;DHT22;37900;52.996;6.278;2024-02-16T11:21:14;17.70;92.30
51863;DHT22;37900;52.996;6.278;2024-02-16T11:23:40;17.70;92.40
51863;DHT22;37900;52.996;6.278;2024-02-16T11:26:08;17.70;92.40
51863;DHT22;37900;52.996;6.278;2024-02-16T11:28:36;18.00;92.40
51863;DHT22;37900;52.996;6.278;2024-02-16T11:31:03;17.70;92.40
51863;DHT22;37900;52.996;6.278;2024-02-16T11:33:29;17.70;92.40
51863;DHT22;37900;52.996;6.278;2024-02-16T11:35:55;17.70;92.40
51863;DHT22;37900;52.996;6.278;2024-02-16T11:38:21;17.70;92.40
51863;DHT22;37900;52.996;6.278;2024-02-16T11:40:54;17.70;92.40
51863;DHT22;37900;52.996;6.278;2024-02-16T11:43:23;17.70;92.40
51863;DHT22;37900;52.996;6.278;2024-02-16T11:45:49;17.70;92.40
51863;DHT22;37900;52.996;6.278;2024-02-16T11:48:24;17.70;92.40
51863;DHT22;37900;52.996;6.278;2024-02-16T11:50:59;17.70;92.30
51863;DHT22;37900;52.996;6.278;2024-02-16T11:53:24;17.70;92.30
51863;DHT22;37900;52.996;6.278;2024-02-16T11:55:50;17.70;92.30
51863;DHT22;37900;52.996;6.278;2024-02-16T11:58:16;17.70;92.30
51863;DHT22;37900;52.996;6.278;2024-02-16T12:00:43;17.70;92.30
51863;DHT22;37900;52.996;6.278;2024-02-16T12:03:09;17.70;92.30
51863;DHT22;37900;52.996;6.278;2024-02-16T12:05:34;17.70;92.20
51863;DHT22;37900;52.996;6.278;2024-02-16T12:08:00;17.70;92.20
51863;DHT22;37900;52.996;6.278;2024-02-16T12:10:25;17.70;92.20
51863;DHT22;37900;52.996;6.278;2024-02-16T12:12:52;17.70;92.40
51863;DHT22;37900;52.996;6.278;2024-02-16T12:15:18;17.70;92.20
51863;DHT22;37900;52.996;6.278;2024-02-16T12:17:45;17.70;92.10
51863;DHT22;37900;52.996;6.278;2024-02-16T12:20:14;17.70;92.10
51863;DHT22;37900;52.996;6.278;2024-02-16T12:22:39;17.70;92.10
51863;DHT22;37900;52.996;6.278;2024-02-16T12:25:05;17.70;92.10
51863;DHT22;37900;52.996;6.278;2024-02-16T12:27:31;17.70;92.10
51863;DHT22;37900;52.996;6.278;2024-02-16T12:29:57;17.70;92.10
51863;DHT22;37900;52.996;6.278;2024-02-16T12:32:22;17.70;92.10
51863;DHT22;37900;52.996;6.278;2024-02-16T12:34:48;17.70;92.10
51863;DHT22;37900;52.996;6.278;2024-02-16T12:37:14;17.70;92.00
51863;DHT22;37900;52.996;6.278;2024-02-16T12:39:39;17.60;92.00
51863;DHT22;37900;52.996;6.278;2024-02-16T12:42:06;17.70;92.00
51863;DHT22;37900;52.996;6.278;2024-02-16T12:44:31;17.50;92.00
51863;DHT22;37900;52.996;6.278;2024-02-16T12:46:57;17.70;92.50
51863;DHT22;37900;52.996;6.278;2024-02-16T12:49:22;17.70;92.50
51863;DHT22;37900;52.996;6.278;2024-02-16T12:51:49;17.70;92.80
51863;DHT22;37900;52.996;6.278;2024-02-16T12:54:15;17.70;93.20
51863;DHT22;37900;52.996;6.278;2024-02-16T12:56:47;17.70;93.40
51863;DHT22;37900;52.996;6.278;2024-02-16T12:59:13;17.70;93.40
51863;DHT22;37900;52.996;6.278;2024-02-16T13:01:39;17.70;93.40
51863;DHT22;37900;52.996;6.278;2024-02-16T13:04:05;17.70;93.30
51863;DHT22;37900;52.996;6.278;2024-02-16T13:06:31;17.70;93.30
51863;DHT22;37900;52.996;6.278;2024-02-16T13:08:57;17.70;93.30
51863;DHT22;37900;52.996;6.278;2024-02-16T13:11:22;17.70;93.30
51863;DHT22;37900;52.996;6.278;2024-02-16T13:13:48;17.70;93.30
51863;DHT22;37900;52.996;6.278;2024-02-16T13:16:13;17.70;93.20
51863;DHT22;37900;52.996;6.278;2024-02-16T13:18:39;17.70;93.20
51863;DHT22;37900;52.996;6.278;2024-02-16T13:21:04;17.70;93.20
51863;DHT22;37900;52.996;6.278;2024-02-16T13:23:30;17.70;93.20
51863;DHT22;37900;52.996;6.278;2024-02-16T13:25:56;17.70;93.20
51863;DHT22;37900;52.996;6.278;2024-02-16T13:28:22;17.70;93.20
51863;DHT22;37900;52.996;6.278;2024-02-16T13:30:47;17.70;93.10
51863;DHT22;37900;52.996;6.278;2024-02-16T13:33:13;17.30;93.00
51863;DHT22;37900;52.996;6.278;2024-02-16T13:35:38;17.70;93.10
51863;DHT22;37900;52.996;6.278;2024-02-16T13:38:04;17.70;93.10
51863;DHT22;37900;52.996;6.278;2024-02-16T13:40:30;17.70;93.00
51863;DHT22;37900;52.996;6.278;2024-02-16T13:42:56;17.70;93.40
51863;DHT22;37900;52.996;6.278;2024-02-16T13:45:28;17.70;93.90
51863;DHT22;37900;52.996;6.278;2024-02-16T13:47:55;17.70;94.20
51863;DHT22;37900;52.996;6.278;2024-02-16T13:50:21;17.70;94.40
51863;DHT22;37900;52.996;6.278;2024-02-16T13:52:47;17.70;94.60
51863;DHT22;37900;52.996;6.278;2024-02-16T13:55:12;17.80;94.80
51863;DHT22;37900;52.996;6.278;2024-02-16T13:57:38;17.80;95.20
51863;DHT22;37900;52.996;6.278;2024-02-16T14:00:04;17.70;95.40
51863;DHT22;37900;52.996;6.278;2024-02-16T14:02:30;17.80;95.50
51863;DHT22;37900;52.996;6.278;2024-02-16T14:04:56;17.70;95.40
51863;DHT22;37900;52.996;6.278;2024-02-16T14:07:22;17.80;95.40
51863;DHT22;37900;52.996;6.278;2024-02-16T14:09:48;17.80;95.70
51863;DHT22;37900;52.996;6.278;2024-02-16T14:12:13;17.80;96.30
51863;DHT22;37900;52.996;6.278;2024-02-16T14:14:39;17.80;96.40
51863;DHT22;37900;52.996;6.278;2024-02-16T14:17:04;17.80;96.60
51863;DHT22;37900;52.996;6.278;2024-02-16T14:19:30;17.90;96.70
51863;DHT22;37900;52.996;6.278;2024-02-16T14:21:56;17.90;96.80
51863;DHT22;37900;52.996;6.278;2024-02-16T14:24:21;17.90;96.90
51863;DHT22;37900;52.996;6.278;2024-02-16T14:26:47;17.90;96.80
51863;DHT22;37900;52.996;6.278;2024-02-16T14:29:13;17.90;96.90
51863;DHT22;37900;52.996;6.278;2024-02-16T14:31:38;17.90;97.00
51863;DHT22;37900;52.996;6.278;2024-02-16T14:34:04;17.90;97.10
51863;DHT22;37900;52.996;6.278;2024-02-16T14:36:29;17.90;97.10
51863;DHT22;37900;52.996;6.278;2024-02-16T14:38:55;17.90;97.10
51863;DHT22;37900;52.996;6.278;2024-02-16T14:41:21;17.90;97.20
51863;DHT22;37900;52.996;6.278;2024-02-16T14:43:48;17.90;97.20
51863;DHT22;37900;52.996;6.278;2024-02-16T14:46:13;17.90;97.30
51863;DHT22;37900;52.996;6.278;2024-02-16T14:48:41;17.90;97.10
51863;DHT22;37900;52.996;6.278;2024-02-16T14:51:06;17.90;96.90
51863;DHT22;37900;52.996;6.278;2024-02-16T14:53:32;17.90;96.90
51863;DHT22;37900;52.996;6.278;2024-02-16T14:55:58;17.90;96.80
51863;DHT22;37900;52.996;6.278;2024-02-16T14:58:24;17.90;96.70
51863;DHT22;37900;52.996;6.278;2024-02-16T15:00:50;17.90;96.60
51863;DHT22;37900;52.996;6.278;2024-02-16T15:03:16;17.90;96.50
51863;DHT22;37900;52.996;6.278;2024-02-16T15:05:44;17.90;96.50
51863;DHT22;37900;52.996;6.278;2024-02-16T15:08:09;17.90;96.40
51863;DHT22;37900;52.996;6.278;2024-02-16T15:10:35;17.90;96.30
51863;DHT22;37900;52.996;6.278;2024-02-16T15:13:01;17.90;96.20
51863;DHT22;37900;52.996;6.278;2024-02-16T15:15:26;17.90;96.20
51863;DHT22;37900;52.996;6.278;2024-02-16T15:17:52;17.90;96.10
51863;DHT22;37900;52.996;6.278;2024-02-16T15:20:17;17.90;96.10
51863;DHT22;37900;52.996;6.278;2024-02-16T15:22:43;17.90;96.00
51863;DHT22;37900;52.996;6.278;2024-02-16T15:25:08;17.90;95.90